Etusivu
METAR-TAF:

METAR-TAF

Lentoasemat :

Iowa County Airport

Mineral Point, Wisconsin, Yhdysvallat

Leveyspiiri: 42-53-07N, Pituuspiiri: 090-13-55W, korkeus merenpinnasta: 359 m

Tämänhetkinen sää

Tämä raportti tehtiin 27 minuuttia sitten, kello 19.35 UTC
Tuuli 9 kn lännestä puuskistuen 15 kn:hen
Lämpötila 21°C
Kosteus 100%
Ilmanpaine 1002 hPa
Näkyvyys: 16.1 km
Hajonneita pilviä 1900 ft:n korkeudessa
Hajonneita pilviä 2800 ft:n korkeudessa
Pilvistä 4900 ft:n korkeudessa

METAR: KMRJ 241935Z AUTO 26009G15KT 10SM BKN019 BKN028 OVC049 21/21 A2958 RMK AO2 P0003

Aika: 15:02 (20:02 UTC)


TAF: puuttuu

Säähavainnot ja -ennusteet yli 4000 lentoasemalta (METAR- ja TAF-raportit).

Käytössä olevat sääasemat on merkitty karttaan keltaisilla ja punaisilla pisteillä.

Aseta hiiri pisteen päälle nähdäksesi sääaseman nimen.

Klikkaa sitten nähdäksesi säähavainnot ja -ennusteet.

Kartan vaihtaminen: klikkaa mustalla rastilla varustettuja vihreitä pisteitä, niin voit zoomata sisään; viivalla varustettua vihreää pistettä, niin voit zoomata ulos tai vihreitä nuolia, niin pääset viereisille kartoille.


METAR-TAF: